PWSweather.com
Personal Weather Stations
Station Observations

LlefiĆ BadalonaES

Lat: 41.44, Lon: 2.2175

Elevation: 213.254

Station Type: oregon WMR918

http://www.estacionmeteorologicabadalonallefia.com

Latest ConditionsUpdated 6:40:04 PM GMT+01:01 Sunday, Jul 5, 2015
Currently Today's Max Today's Min Today's Average
Temperature 88.9°F31.6°C 92.9°F33.8°C 75.0°F23.9°C 84.4°F29.1°C
Dew Point 42.6°F5.9°C 63.8°F17.7°C 40.6°F4.8°C 50.5°F10.3°C
Winds 6.7 mph SSW10.8 kmh SSW 11.4 mph S18.3 kmh S - 5.6 mph 9.0 kmh
Wind Gusts 9.9 mph15.9 kmh 22.1 mph35.6 kmh - -
Humidity 20% 61% 18% 35%
Pressure 30.03 in1016.9 mb 30.12 in1020.0 mb 30.03 in1016.9 mb -
Hour Temp Dew Point Humidity Winds Wind Gusts Pressure Precip Precip Rate Daily Precip Total
06:40 PM 88.9°F31.6°C 42.6°F5.9°C 20% 6.7 mph SSW10.8 kmh SSW 9.9 mph15.9 kmh 30.03 in1016.9 mb - 0.00 in0.0 mm 0.00 in0.0 mm
06:30 PM 89.2°F31.8°C 42.9°F6.1°C 20% 5.4 mph S8.7 kmh S 9.3 mph15.0 kmh 30.03 in1016.9 mb - 0.00 in0.0 mm 0.00 in0.0 mm
06:20 PM 89.4°F31.9°C 43.0°F6.1°C 20% 4.9 mph S7.9 kmh S 7.6 mph12.2 kmh 30.03 in1016.9 mb - 0.00 in0.0 mm 0.00 in0.0 mm
06:10 PM 89.4°F31.9°C 43.0°F6.1°C 20% 8.2 mph S13.2 kmh S 10.7 mph17.2 kmh 30.03 in1016.9 mb - 0.00 in0.0 mm 0.00 in0.0 mm
06:00 PM 89.4°F31.9°C 43.1°F6.2°C 20% 7.2 mph S11.6 kmh S 10.7 mph17.2 kmh 30.03 in1016.9 mb - 0.00 in0.0 mm 0.00 in0.0 mm
05:50 PM 89.8°F32.1°C 40.6°F4.8°C 18% 9.2 mph S14.8 kmh S 14.2 mph22.9 kmh 30.03 in1016.9 mb - 0.00 in0.0 mm 0.00 in0.0 mm
05:40 PM 90.1°F32.3°C 40.9°F4.9°C 18% 8.2 mph SW13.2 kmh SW 13.1 mph21.1 kmh 30.03 in1016.9 mb - 0.00 in0.0 mm 0.00 in0.0 mm
05:30 PM 90.1°F32.3°C 40.9°F4.9°C 18% 8.3 mph S13.4 kmh S 15.4 mph24.8 kmh 30.03 in1016.9 mb - 0.00 in0.0 mm 0.00 in0.0 mm
05:20 PM 90.7°F32.6°C 41.3°F5.2°C 18% 9.1 mph S14.6 kmh S 13.7 mph22.0 kmh 30.03 in1016.9 mb - 0.00 in0.0 mm 0.00 in0.0 mm
05:10 PM 90.5°F32.5°C 41.2°F5.1°C 18% 9.1 mph S14.6 kmh S 13.7 mph22.0 kmh 30.03 in1016.9 mb - 0.00 in0.0 mm 0.00 in0.0 mm
05:00 PM 90.9°F32.7°C 41.5°F5.3°C 18% 6.9 mph S11.1 kmh S 13.1 mph21.1 kmh 30.03 in1016.9 mb - 0.00 in0.0 mm 0.00 in0.0 mm
04:50 PM 90.9°F32.7°C 41.5°F5.3°C 18% 9.9 mph S15.9 kmh S 16.0 mph25.7 kmh 30.03 in1016.9 mb - 0.00 in0.0 mm 0.00 in0.0 mm
04:40 PM 90.9°F32.7°C 41.5°F5.3°C 18% 10.1 mph S16.3 kmh S 18.3 mph29.5 kmh 30.03 in1016.9 mb - 0.00 in0.0 mm 0.00 in0.0 mm
04:30 PM 91.0°F32.8°C 41.6°F5.3°C 18% 8.0 mph S12.9 kmh S 11.3 mph18.2 kmh 30.03 in1016.9 mb - 0.00 in0.0 mm 0.00 in0.0 mm
04:20 PM 91.2°F32.9°C 41.8°F5.4°C 18% 8.1 mph S13.0 kmh S 14.8 mph23.8 kmh 30.03 in1016.9 mb - 0.00 in0.0 mm 0.00 in0.0 mm
04:10 PM 91.2°F32.9°C 41.8°F5.4°C 18% 9.7 mph S15.6 kmh S 13.7 mph22.0 kmh 30.03 in1016.9 mb - 0.00 in0.0 mm 0.00 in0.0 mm
04:00 PM 91.2°F32.9°C 41.8°F5.4°C 18% 11.2 mph S18.0 kmh S 17.1 mph27.5 kmh 30.03 in1016.9 mb - 0.00 in0.0 mm 0.00 in0.0 mm
03:50 PM 92.1°F33.4°C 42.5°F5.8°C 18% 8.0 mph S12.9 kmh S 10.7 mph17.2 kmh 30.03 in1016.9 mb - 0.00 in0.0 mm 0.00 in0.0 mm
03:40 PM 91.8°F33.2°C 42.2°F5.7°C 18% 11.4 mph S18.3 kmh S 17.7 mph28.5 kmh 30.03 in1016.9 mb - 0.00 in0.0 mm 0.00 in0.0 mm
03:30 PM 92.0°F33.3°C 42.4°F5.8°C 18% 10.4 mph S16.7 kmh S 11.3 mph18.2 kmh 30.03 in1016.9 mb - 0.00 in0.0 mm 0.00 in0.0 mm
03:20 PM 92.8°F33.8°C 43.1°F6.2°C 18% 10.9 mph SSW17.5 kmh SSW 22.1 mph35.6 kmh 30.03 in1016.9 mb - 0.00 in0.0 mm 0.00 in0.0 mm
03:10 PM 92.8°F33.8°C 43.1°F6.2°C 18% 8.9 mph SSW14.3 kmh SSW 17.7 mph28.5 kmh 30.03 in1016.9 mb - 0.00 in0.0 mm 0.00 in0.0 mm
03:00 PM 92.9°F33.8°C 47.2°F8.4°C 21% 7.2 mph S11.6 kmh S 13.1 mph21.1 kmh 30.03 in1016.9 mb - 0.00 in0.0 mm 0.00 in0.0 mm
02:50 PM 92.8°F33.8°C 43.1°F6.2°C 18% 8.2 mph S13.2 kmh S 10.5 mph16.9 kmh 30.03 in1016.9 mb - 0.00 in0.0 mm 0.00 in0.0 mm
02:40 PM 92.5°F33.6°C 42.8°F6.0°C 18% 9.9 mph SSW15.9 kmh SSW 13.1 mph21.1 kmh 30.03 in1016.9 mb - 0.00 in0.0 mm 0.00 in0.0 mm
02:30 PM 92.6°F33.7°C 42.9°F6.1°C 18% 10.1 mph SSW16.3 kmh SSW 16.0 mph25.7 kmh 30.03 in1016.9 mb - 0.00 in0.0 mm 0.00 in0.0 mm
02:20 PM 92.4°F33.6°C 42.7°F5.9°C 18% 11.1 mph S17.9 kmh S 20.0 mph32.2 kmh 30.03 in1016.9 mb - 0.00 in0.0 mm 0.00 in0.0 mm
02:10 PM 92.6°F33.7°C 42.9°F6.1°C 18% 8.1 mph SSW13.0 kmh SSW 13.7 mph22.0 kmh 30.03 in1016.9 mb - 0.00 in0.0 mm 0.00 in0.0 mm
02:00 PM 92.7°F33.7°C 47.1°F8.4°C 21% 5.7 mph S9.2 kmh S 13.1 mph21.1 kmh 30.03 in1016.9 mb - 0.00 in0.0 mm 0.00 in0.0 mm
01:50 PM 92.1°F33.4°C 46.6°F8.1°C 21% 7.5 mph SSE12.1 kmh SSE 11.9 mph19.2 kmh 30.06 in1017.9 mb - 0.00 in0.0 mm 0.00 in0.0 mm
01:40 PM 92.4°F33.6°C 46.8°F8.2°C 21% 8.9 mph SSW14.3 kmh SSW 21.8 mph35.1 kmh 30.06 in1017.9 mb - 0.00 in0.0 mm 0.00 in0.0 mm
01:30 PM 92.0°F33.3°C 46.5°F8.1°C 21% 9.2 mph S14.8 kmh S 14.2 mph22.9 kmh 30.06 in1017.9 mb - 0.00 in0.0 mm 0.00 in0.0 mm
01:20 PM 92.5°F33.6°C 46.9°F8.3°C 21% 10.0 mph SSW16.1 kmh SSW 20.0 mph32.2 kmh 30.03 in1016.9 mb - 0.00 in0.0 mm 0.00 in0.0 mm
01:10 PM 91.9°F33.3°C 46.4°F8.0°C 21% 10.5 mph SSE16.9 kmh SSE 11.3 mph18.2 kmh 30.06 in1017.9 mb - 0.00 in0.0 mm 0.00 in0.0 mm
01:00 PM 91.4°F33.0°C 46.0°F7.8°C 21% 7.8 mph S12.6 kmh S 10.7 mph17.2 kmh 30.06 in1017.9 mb - 0.00 in0.0 mm 0.00 in0.0 mm
12:50 PM 91.4°F33.0°C 46.0°F7.8°C 21% 8.9 mph S14.3 kmh S 16.6 mph26.7 kmh 30.06 in1017.9 mb - 0.00 in0.0 mm 0.00 in0.0 mm
12:40 PM 90.9°F32.7°C 47.9°F8.8°C 23% 8.3 mph SSE13.4 kmh SSE 14.2 mph22.9 kmh 30.06 in1017.9 mb - 0.00 in0.0 mm 0.00 in0.0 mm
12:30 PM 91.4°F33.0°C 46.0°F7.8°C 21% 7.1 mph S11.4 kmh S 10.7 mph17.2 kmh 30.06 in1017.9 mb - 0.00 in0.0 mm 0.00 in0.0 mm
12:20 PM 90.6°F32.6°C 47.7°F8.7°C 23% 7.1 mph S11.4 kmh S 11.3 mph18.2 kmh 30.06 in1017.9 mb - 0.00 in0.0 mm 0.00 in0.0 mm
12:10 PM 91.0°F32.8°C 48.1°F8.9°C 23% 8.0 mph S12.9 kmh S 13.7 mph22.0 kmh 30.06 in1017.9 mb - 0.00 in0.0 mm 0.00 in0.0 mm
12:00 PM 90.9°F32.7°C 47.9°F8.8°C 23% 6.8 mph SSE10.9 kmh SSE 13.7 mph22.0 kmh 30.06 in1017.9 mb - 0.00 in0.0 mm 0.00 in0.0 mm
11:50 AM 91.1°F32.8°C 48.2°F9.0°C 23% 8.6 mph SSE13.8 kmh SSE 12.5 mph20.1 kmh 30.06 in1017.9 mb - 0.00 in0.0 mm 0.00 in0.0 mm
11:40 AM 92.5°F33.6°C 42.8°F6.0°C 18% 5.8 mph SSW9.3 kmh SSW 12.5 mph20.1 kmh 30.06 in1017.9 mb - 0.00 in0.0 mm 0.00 in0.0 mm
11:30 AM 92.4°F33.6°C 42.7°F5.9°C 18% 9.0 mph SSE14.5 kmh SSE 15.4 mph24.8 kmh 30.06 in1017.9 mb - 0.00 in0.0 mm 0.00 in0.0 mm
11:20 AM 91.7°F33.2°C 46.2°F7.9°C 21% 0.1 mph E0.2 kmh E 3.5 mph5.6 kmh 30.06 in1017.9 mb - 0.00 in0.0 mm 0.00 in0.0 mm
11:10 AM 91.9°F33.3°C 46.4°F8.0°C 21% 5.3 mph SSW8.5 kmh SSW 11.3 mph18.2 kmh 30.06 in1017.9 mb - 0.00 in0.0 mm 0.00 in0.0 mm
11:00 AM 91.4°F33.0°C 46.0°F7.8°C 21% 3.1 mph SW5.0 kmh SW 4.1 mph6.6 kmh 30.06 in1017.9 mb - 0.00 in0.0 mm 0.00 in0.0 mm
10:50 AM 90.5°F32.5°C 47.6°F8.7°C 23% 4.0 mph SSW6.4 kmh SSW 5.2 mph8.4 kmh 30.06 in1017.9 mb - 0.00 in0.0 mm 0.00 in0.0 mm
10:40 AM 90.0°F32.2°C 47.2°F8.4°C 23% 2.6 mph W4.2 kmh W 7.0 mph11.3 kmh 30.06 in1017.9 mb - 0.00 in0.0 mm 0.00 in0.0 mm
10:30 AM 89.2°F31.8°C 46.6°F8.1°C 23% 3.1 mph WSW5.0 kmh WSW 6.4 mph10.3 kmh 30.06 in1017.9 mb - 0.00 in0.0 mm 0.00 in0.0 mm
10:20 AM 89.1°F31.7°C 46.4°F8.0°C 23% 6.7 mph W10.8 kmh W 10.7 mph17.2 kmh 30.06 in1017.9 mb - 0.00 in0.0 mm 0.00 in0.0 mm
10:10 AM 88.5°F31.4°C 46.0°F7.8°C 23% 3.3 mph SW5.3 kmh SW 10.5 mph16.9 kmh 30.06 in1017.9 mb - 0.00 in0.0 mm 0.00 in0.0 mm
10:00 AM 88.3°F31.3°C 45.8°F7.7°C 23% 3.6 mph W5.8 kmh W 7.0 mph11.3 kmh 30.06 in1017.9 mb - 0.00 in0.0 mm 0.00 in0.0 mm
09:50 AM 88.0°F31.1°C 45.5°F7.5°C 23% 3.5 mph WSW5.6 kmh WSW 6.4 mph10.3 kmh 30.06 in1017.9 mb - 0.00 in0.0 mm 0.00 in0.0 mm
09:40 AM 87.8°F31.0°C 45.4°F7.4°C 23% 4.9 mph NW7.9 kmh NW 9.9 mph15.9 kmh 30.06 in1017.9 mb - 0.00 in0.0 mm 0.00 in0.0 mm
09:30 AM 87.4°F30.8°C 47.3°F8.5°C 25% 3.7 mph WNW6.0 kmh WNW 4.6 mph7.4 kmh 30.06 in1017.9 mb - 0.00 in0.0 mm 0.00 in0.0 mm
09:20 AM 87.4°F30.8°C 47.3°F8.5°C 25% 4.9 mph NW7.9 kmh NW 8.1 mph13.0 kmh 30.06 in1017.9 mb - 0.00 in0.0 mm 0.00 in0.0 mm
09:10 AM 87.1°F30.6°C 49.0°F9.4°C 27% 6.6 mph SW10.6 kmh SW 13.1 mph21.1 kmh 30.06 in1017.9 mb - 0.00 in0.0 mm 0.00 in0.0 mm
09:01 AM 86.5°F30.3°C 48.6°F9.2°C 27% 4.1 mph W6.6 kmh W 8.1 mph13.0 kmh 30.06 in1017.9 mb - 0.00 in0.0 mm 0.00 in0.0 mm
08:50 AM 84.9°F29.4°C 50.0°F10.0°C 30% 0.9 mph WSW1.4 kmh WSW 8.1 mph13.0 kmh 30.06 in1017.9 mb - 0.00 in0.0 mm 0.00 in0.0 mm
08:40 AM 83.7°F28.7°C 49.8°F9.9°C 31% Calm Calm 7.6 mph12.2 kmh 30.06 in1017.9 mb - 0.00 in0.0 mm 0.00 in0.0 mm
08:30 AM 82.1°F27.8°C 49.3°F9.6°C 32% 4.0 mph WNW6.4 kmh WNW 6.4 mph10.3 kmh 30.06 in1017.9 mb - 0.00 in0.0 mm 0.00 in0.0 mm
08:20 AM 80.8°F27.1°C 49.8°F9.9°C 34% 3.6 mph NW5.8 kmh NW 5.8 mph9.3 kmh 30.06 in1017.9 mb - 0.00 in0.0 mm 0.00 in0.0 mm
08:10 AM 79.9°F26.6°C 49.8°F9.9°C 35% 5.8 mph NW9.3 kmh NW 7.6 mph12.2 kmh 30.06 in1017.9 mb - 0.00 in0.0 mm 0.00 in0.0 mm
08:00 AM 79.0°F26.1°C 49.7°F9.8°C 36% 4.0 mph NW6.4 kmh NW 7.6 mph12.2 kmh 30.06 in1017.9 mb - 0.00 in0.0 mm 0.00 in0.0 mm
07:50 AM 78.1°F25.6°C 50.5°F10.3°C 38% 7.0 mph NNW11.3 kmh NNW 10.7 mph17.2 kmh 30.06 in1017.9 mb - 0.00 in0.0 mm 0.00 in0.0 mm
07:30 AM 77.0°F25.0°C 52.1°F11.2°C 42% 4.6 mph SW7.4 kmh SW 8.1 mph13.0 kmh 30.06 in1017.9 mb - 0.00 in0.0 mm 0.00 in0.0 mm
07:20 AM 76.8°F24.9°C 53.3°F11.8°C 44% 4.2 mph SSW6.8 kmh SSW 9.9 mph15.9 kmh 30.06 in1017.9 mb - 0.00 in0.0 mm 0.00 in0.0 mm
07:10 AM 76.3°F24.6°C 52.8°F11.6°C 44% 4.9 mph SW7.9 kmh SW 7.0 mph11.3 kmh 30.06 in1017.9 mb - 0.00 in0.0 mm 0.00 in0.0 mm
07:00 AM 75.9°F24.4°C 53.6°F12.0°C 46% Calm Calm 6.4 mph10.3 kmh 30.06 in1017.9 mb - 0.00 in0.0 mm 0.00 in0.0 mm
06:50 AM 75.9°F24.4°C 53.6°F12.0°C 46% 2.7 mph WSW4.3 kmh WSW 7.6 mph12.2 kmh 30.06 in1017.9 mb - 0.00 in0.0 mm 0.00 in0.0 mm
06:40 AM 75.6°F24.2°C 53.3°F11.8°C 46% 5.6 mph WNW9.0 kmh WNW 7.0 mph11.3 kmh 30.06 in1017.9 mb - 0.00 in0.0 mm 0.00 in0.0 mm
06:30 AM 75.4°F24.1°C 53.7°F12.1°C 47% 5.9 mph NW9.5 kmh NW 13.1 mph21.1 kmh 30.06 in1017.9 mb - 0.00 in0.0 mm 0.00 in0.0 mm
06:20 AM 75.6°F24.2°C 53.9°F12.2°C 47% 3.1 mph NW5.0 kmh NW 8.1 mph13.0 kmh 30.06 in1017.9 mb - 0.00 in0.0 mm 0.00 in0.0 mm
06:10 AM 75.6°F24.2°C 53.9°F12.2°C 47% 6.1 mph NW9.8 kmh NW 9.9 mph15.9 kmh 30.06 in1017.9 mb - 0.00 in0.0 mm 0.00 in0.0 mm
06:00 AM 75.4°F24.1°C 53.7°F12.1°C 47% Calm Calm 3.5 mph5.6 kmh 30.06 in1017.9 mb - 0.00 in0.0 mm 0.00 in0.0 mm
05:50 AM 75.4°F24.1°C 53.7°F12.1°C 47% 3.0 mph NW4.8 kmh NW 4.1 mph6.6 kmh 30.06 in1017.9 mb - 0.00 in0.0 mm 0.00 in0.0 mm
05:40 AM 75.6°F24.2°C 53.9°F12.2°C 47% 4.5 mph NW7.2 kmh NW 9.9 mph15.9 kmh 30.06 in1017.9 mb - 0.00 in0.0 mm 0.00 in0.0 mm
05:30 AM 75.6°F24.2°C 53.9°F12.2°C 47% 6.7 mph NW10.8 kmh NW 11.3 mph18.2 kmh 30.06 in1017.9 mb - 0.00 in0.0 mm 0.00 in0.0 mm
05:20 AM 75.9°F24.4°C 57.0°F13.9°C 52% 5.2 mph NW8.4 kmh NW 10.5 mph16.9 kmh 30.06 in1017.9 mb - 0.00 in0.0 mm 0.00 in0.0 mm
05:10 AM 75.9°F24.4°C 58.1°F14.5°C 54% 5.3 mph W8.5 kmh W 10.7 mph17.2 kmh 30.06 in1017.9 mb - 0.00 in0.0 mm 0.00 in0.0 mm
05:00 AM 75.9°F24.4°C 60.1°F15.6°C 58% 5.0 mph WNW8.0 kmh WNW 10.7 mph17.2 kmh 30.06 in1017.9 mb - 0.00 in0.0 mm 0.00 in0.0 mm
04:50 AM 76.1°F24.5°C 60.7°F15.9°C 59% 4.5 mph NW7.2 kmh NW 10.7 mph17.2 kmh 30.06 in1017.9 mb - 0.00 in0.0 mm 0.00 in0.0 mm
04:40 AM 75.7°F24.3°C 60.4°F15.8°C 59% 1.9 mph WNW3.1 kmh WNW 5.2 mph8.4 kmh 30.06 in1017.9 mb - 0.00 in0.0 mm 0.00 in0.0 mm
04:30 AM 75.6°F24.2°C 60.2°F15.7°C 59% 4.0 mph NW6.4 kmh NW 9.3 mph15.0 kmh 30.06 in1017.9 mb - 0.00 in0.0 mm 0.00 in0.0 mm
04:20 AM 75.4°F24.1°C 60.1°F15.6°C 59% 5.5 mph WNW8.9 kmh WNW 7.0 mph11.3 kmh 30.06 in1017.9 mb - 0.00 in0.0 mm 0.00 in0.0 mm
04:10 AM 75.4°F24.1°C 60.1°F15.6°C 59% 7.4 mph NW11.9 kmh NW 14.2 mph22.9 kmh 30.06 in1017.9 mb - 0.00 in0.0 mm 0.00 in0.0 mm
04:00 AM 75.2°F24.0°C 60.4°F15.8°C 60% 7.8 mph WNW12.6 kmh WNW 10.7 mph17.2 kmh 30.06 in1017.9 mb - 0.00 in0.0 mm 0.00 in0.0 mm
03:50 AM 75.0°F23.9°C 60.7°F15.9°C 61% 6.7 mph NW10.8 kmh NW 13.1 mph21.1 kmh 30.06 in1017.9 mb - 0.00 in0.0 mm 0.00 in0.0 mm
03:40 AM 75.0°F23.9°C 60.7°F15.9°C 61% 7.4 mph NW11.9 kmh NW 13.7 mph22.0 kmh 30.06 in1017.9 mb - 0.00 in0.0 mm 0.00 in0.0 mm
03:30 AM 75.0°F23.9°C 60.7°F15.9°C 61% 6.9 mph NW11.1 kmh NW 12.5 mph20.1 kmh 30.06 in1017.9 mb - 0.00 in0.0 mm 0.00 in0.0 mm
03:20 AM 75.2°F24.0°C 60.4°F15.8°C 60% 6.1 mph NW9.8 kmh NW 7.6 mph12.2 kmh 30.06 in1017.9 mb - 0.00 in0.0 mm 0.00 in0.0 mm
03:10 AM 75.6°F24.2°C 60.2°F15.7°C 59% 5.4 mph NW8.7 kmh NW 8.1 mph13.0 kmh 30.06 in1017.9 mb - 0.00 in0.0 mm 0.00 in0.0 mm
03:00 AM 76.1°F24.5°C 60.7°F15.9°C 59% 5.2 mph NW8.4 kmh NW 8.1 mph13.0 kmh 30.06 in1017.9 mb - 0.00 in0.0 mm 0.00 in0.0 mm
02:50 AM 76.5°F24.7°C 60.6°F15.9°C 58% 5.9 mph NW9.5 kmh NW 9.9 mph15.9 kmh 30.06 in1017.9 mb - 0.00 in0.0 mm 0.00 in0.0 mm
02:40 AM 76.8°F24.9°C 60.4°F15.8°C 57% 4.9 mph NW7.9 kmh NW 9.3 mph15.0 kmh 30.09 in1019.0 mb - 0.00 in0.0 mm 0.00 in0.0 mm
02:30 AM 77.0°F25.0°C 60.1°F15.6°C 56% 4.9 mph NW7.9 kmh NW 7.6 mph12.2 kmh 30.09 in1019.0 mb - 0.00 in0.0 mm 0.00 in0.0 mm
02:20 AM 77.2°F25.1°C 58.7°F14.8°C 53% 3.6 mph WNW5.8 kmh WNW 5.8 mph9.3 kmh 30.09 in1019.0 mb - 0.00 in0.0 mm 0.00 in0.0 mm
02:10 AM 77.7°F25.4°C 58.7°F14.8°C 52% 3.7 mph NW6.0 kmh NW 5.2 mph8.4 kmh 30.09 in1019.0 mb - 0.00 in0.0 mm 0.00 in0.0 mm
02:00 AM 78.1°F25.6°C 58.5°F14.7°C 51% 2.8 mph NW4.5 kmh NW 5.2 mph8.4 kmh 30.09 in1019.0 mb - 0.00 in0.0 mm 0.00 in0.0 mm
01:50 AM 78.3°F25.7°C 58.1°F14.5°C 50% Calm Calm -- 30.09 in1019.0 mb - 0.00 in0.0 mm 0.00 in0.0 mm
01:40 AM 78.8°F26.0°C 56.9°F13.8°C 47% 5.4 mph NW8.7 kmh NW 8.1 mph13.0 kmh 30.09 in1019.0 mb - 0.00 in0.0 mm 0.00 in0.0 mm
01:30 AM 79.3°F26.3°C 56.8°F13.8°C 46% Calm Calm -- 30.09 in1019.0 mb - 0.00 in0.0 mm 0.00 in0.0 mm
01:20 AM 79.5°F26.4°C 57.5°F14.2°C 47% Calm Calm -- 30.09 in1019.0 mb - 0.00 in0.0 mm 0.00 in0.0 mm
01:10 AM 79.5°F26.4°C 59.2°F15.1°C 50% Calm Calm -- 30.09 in1019.0 mb - 0.00 in0.0 mm 0.00 in0.0 mm
01:00 AM 79.5°F26.4°C 59.8°F15.4°C 51% Calm Calm -- 30.09 in1019.0 mb - 0.00 in0.0 mm 0.00 in0.0 mm
12:50 AM 79.5°F26.4°C 60.9°F16.1°C 53% Calm Calm -- 30.09 in1019.0 mb - 0.00 in0.0 mm 0.00 in0.0 mm
12:40 AM 79.5°F26.4°C 61.4°F16.3°C 54% Calm Calm -- 30.09 in1019.0 mb - 0.00 in0.0 mm 0.00 in0.0 mm
12:30 AM 79.5°F26.4°C 61.4°F16.3°C 54% Calm Calm -- 30.09 in1019.0 mb - 0.00 in0.0 mm 0.00 in0.0 mm
12:20 AM 79.5°F26.4°C 62.4°F16.9°C 56% Calm Calm -- 30.09 in1019.0 mb - 0.00 in0.0 mm 0.00 in0.0 mm
12:10 AM 79.3°F26.3°C 62.8°F17.1°C 57% Calm Calm -- 30.12 in1020.0 mb - 0.00 in0.0 mm 0.00 in0.0 mm
12:00 AM 79.3°F26.3°C 63.8°F17.7°C 59% Calm Calm -- 30.12 in1020.0 mb - 0.00 in0.0 mm 0.00 in0.0 mm